Time;durP1;ratioP1;P1;durP2;ratioP2;P2;SDS_P1;SDS_P2;PMS_P1;PMS_P2;Temp;Humidity;BMP_temperature;BMP_pressure;BME280_temperature;BME280_humidity;BME280_pressure;Samples;Min_cycle;Max_cycle;Signal;HPM_P1;HPM_P2
2023/04/05 00:01:33;;;;;;;21.23;9.13;;;;;;;;;;5013089;28;20312;-81
2023/04/05 00:04:01;;;;;;;18.70;9.00;;;;;;;;;;5032356;28;20280;-81
2023/04/05 00:06:28;;;;;;;16.97;7.00;;;;;;;;;;5013347;28;20292;-82
2023/04/05 00:08:54;;;;;;;20.43;7.50;;;;;;;;;;5013518;28;20276;-81
2023/04/05 00:11:24;;;;;;;14.63;6.73;;;;;;;;;;5014368;28;20272;-81
2023/04/05 00:13:50;;;;;;;16.70;7.60;;;;;;;;;;5013053;28;20331;-81
2023/04/05 00:16:18;;;;;;;11.93;7.03;;;;;;;;;;5030756;28;20281;-81
2023/04/05 00:18:48;;;;;;;16.30;7.10;;;;;;;;;;5015188;28;20276;-81
2023/04/05 00:21:21;;;;;;;18.60;6.97;;;;;;;;;;5016973;28;20299;-80
2023/04/05 00:23:50;;;;;;;15.73;6.87;;;;;;;;;;5024712;28;20368;-80
2023/04/05 00:26:16;;;;;;;14.03;6.90;;;;;;;;;;5013589;28;20388;-81
2023/04/05 00:28:42;;;;;;;23.30;7.53;;;;;;;;;;5013918;28;20295;-81
2023/04/05 00:31:08;;;;;;;12.97;7.03;;;;;;;;;;5012014;28;20283;-82
2023/04/05 00:33:34;;;;;;;14.70;6.90;;;;;;;;;;5012305;28;20306;-81
2023/04/05 00:36:10;;;;;;;16.67;6.80;;;;;;;;;;5013224;28;20311;-80
2023/04/05 00:38:36;;;;;;;15.37;7.17;;;;;;;;;;5014208;28;20272;-81
2023/04/05 00:41:03;;;;;;;17.77;8.00;;;;;;;;;;5024488;28;20292;-80
2023/04/05 00:43:31;;;;;;;16.83;7.13;;;;;;;;;;5015717;28;20314;-81
2023/04/05 00:45:59;;;;;;;16.53;6.80;;;;;;;;;;5038884;28;20299;-79
2023/04/05 00:48:26;;;;;;;13.73;6.90;;;;;;;;;;5023340;28;20295;-79
2023/04/05 00:50:52;;;;;;;13.53;6.70;;;;;;;;;;5020041;28;20283;-79
2023/04/05 00:53:19;;;;;;;11.70;6.33;;;;;;;;;;5021143;28;20273;-82
2023/04/05 00:55:52;;;;;;;11.17;6.50;;;;;;;;;;5020699;28;20284;-81
2023/04/05 00:58:23;;;;;;;14.20;6.20;;;;;;;;;;5018208;28;21549;-80
2023/04/05 01:01:12;;;;;;;14.33;6.73;;;;;;;;;;5037572;28;20276;-80
2023/04/05 01:03:43;;;;;;;13.10;6.70;;;;;;;;;;5037819;28;20272;-80
2023/04/05 01:06:18;;;;;;;12.53;6.53;;;;;;;;;;5030766;28;20341;-79
2023/04/05 01:08:50;;;;;;;12.50;6.57;;;;;;;;;;5022884;28;20327;-82
2023/04/05 01:11:17;;;;;;;11.18;6.82;;;;;;;;;;5020872;28;20308;-79
2023/04/05 01:13:46;;;;;;;16.63;6.67;;;;;;;;;;5030360;28;20076;-80
2023/04/05 01:16:12;;;;;;;12.53;7.07;;;;;;;;;;5031949;28;20300;-80
2023/04/05 01:18:46;;;;;;;14.60;7.23;;;;;;;;;;5035828;28;20276;-79
2023/04/05 01:21:19;;;;;;;11.70;6.83;;;;;;;;;;5038122;28;20478;-79
2023/04/05 01:23:49;;;;;;;14.67;6.80;;;;;;;;;;5018939;28;20319;-82
2023/04/05 01:26:41;;;;;;;16.30;8.10;;;;;;;;;;5038273;28;20360;-79
2023/04/05 01:29:10;;;;;;;12.80;6.07;;;;;;;;;;5036482;28;20291;-81
2023/04/05 01:31:40;;;;;;;15.00;6.83;;;;;;;;;;5020675;28;20307;-80
2023/04/05 01:34:25;;;;;;;14.10;7.00;;;;;;;;;;5021575;28;20276;-81
2023/04/05 01:36:56;;;;;;;16.87;6.50;;;;;;;;;;5037443;28;20277;-82
2023/04/05 01:39:24;;;;;;;14.63;6.57;;;;;;;;;;5020619;28;20289;-80
2023/04/05 01:41:50;;;;;;;12.77;6.43;;;;;;;;;;5020304;28;20517;-82
2023/04/05 01:44:16;;;;;;;11.23;6.43;;;;;;;;;;5018961;28;20297;-82
2023/04/05 01:46:42;;;;;;;18.03;7.37;;;;;;;;;;5035412;28;20314;-79
2023/04/05 01:49:08;;;;;;;15.67;6.87;;;;;;;;;;5037015;28;20272;-79
2023/04/05 01:51:35;;;;;;;15.57;7.13;;;;;;;;;;5029022;28;20280;-79
2023/04/05 01:54:05;;;;;;;15.37;6.67;;;;;;;;;;5020000;28;20307;-79
2023/04/05 01:56:31;;;;;;;14.47;6.67;;;;;;;;;;5016608;28;20265;-79
2023/04/05 01:58:58;;;;;;;12.43;5.90;;;;;;;;;;5018152;28;20299;-81
2023/04/05 02:01:24;;;;;;;13.80;6.03;;;;;;;;;;5018973;28;20359;-79
2023/04/05 02:03:50;;;;;;;13.97;6.50;;;;;;;;;;5017917;28;20284;-81
2023/04/05 02:06:18;;;;;;;13.20;6.13;;;;;;;;;;5017063;28;20328;-79
2023/04/05 02:08:44;;;;;;;11.77;5.83;;;;;;;;;;5034289;28;20288;-80
2023/04/05 02:11:10;;;;;;;13.23;6.57;;;;;;;;;;5018366;28;20280;-79
2023/04/05 02:13:39;;;;;;;13.33;6.53;;;;;;;;;;5038290;28;20285;-80
2023/04/05 02:16:05;;;;;;;11.37;6.20;;;;;;;;;;5015240;28;20295;-79
2023/04/05 02:18:31;;;;;;;11.53;6.40;;;;;;;;;;5018793;28;20348;-79
2023/04/05 02:21:07;;;;;;;15.43;7.03;;;;;;;;;;5019693;28;20291;-79
2023/04/05 02:23:33;;;;;;;11.53;6.67;;;;;;;;;;5034483;28;20629;-81
2023/04/05 02:26:00;;;;;;;14.23;6.67;;;;;;;;;;5020251;28;20323;-81
2023/04/05 02:28:34;;;;;;;10.83;6.50;;;;;;;;;;5020902;28;20522;-80
2023/04/05 02:31:00;;;;;;;13.63;6.93;;;;;;;;;;5030709;28;20272;-80
2023/04/05 02:33:28;;;;;;;12.77;6.60;;;;;;;;;;5019022;28;20271;-79
2023/04/05 02:35:59;;;;;;;12.17;6.07;;;;;;;;;;5020437;28;20272;-80
2023/04/05 02:38:30;;;;;;;12.23;6.10;;;;;;;;;;5030446;28;20273;-80
2023/04/05 02:40:57;;;;;;;13.97;6.23;;;;;;;;;;5030299;28;20307;-80
2023/04/05 02:43:26;;;;;;;13.37;7.20;;;;;;;;;;5019549;28;20292;-80
2023/04/05 02:45:52;;;;;;;9.40;5.83;;;;;;;;;;5035795;28;20296;-82
2023/04/05 02:48:18;;;;;;;15.33;6.57;;;;;;;;;;5036806;28;20829;-80
2023/04/05 02:50:48;;;;;;;16.23;6.87;;;;;;;;;;5017818;28;20283;-79
2023/04/05 02:53:17;;;;;;;10.90;6.53;;;;;;;;;;5019490;28;20272;-81
2023/04/05 02:55:46;;;;;;;15.90;7.50;;;;;;;;;;5019971;28;20288;-80
2023/04/05 02:58:13;;;;;;;13.60;7.40;;;;;;;;;;5032651;28;20281;-79
2023/04/05 03:00:39;;;;;;;14.97;7.10;;;;;;;;;;5029614;28;20308;-79
2023/04/05 03:03:05;;;;;;;16.37;8.17;;;;;;;;;;5021677;28;20268;-80
2023/04/05 03:05:31;;;;;;;16.57;7.30;;;;;;;;;;5022756;28;20327;-79
2023/04/05 03:08:01;;;;;;;13.40;7.13;;;;;;;;;;5022906;28;20296;-80
2023/04/05 03:10:28;;;;;;;14.43;7.83;;;;;;;;;;5018744;28;20293;-80
2023/04/05 03:12:54;;;;;;;21.50;6.63;;;;;;;;;;5039031;28;20272;-79
2023/04/05 03:15:33;;;;;;;18.93;7.13;;;;;;;;;;5041396;28;20295;-79
2023/04/05 03:17:59;;;;;;;19.80;7.53;;;;;;;;;;5034025;28;20276;-80
2023/04/05 03:20:25;;;;;;;14.90;7.47;;;;;;;;;;5023421;28;20303;-80
2023/04/05 03:22:51;;;;;;;12.50;6.67;;;;;;;;;;5035558;28;20292;-79
2023/04/05 03:25:19;;;;;;;14.50;7.33;;;;;;;;;;5021083;28;20307;-80
2023/04/05 03:27:45;;;;;;;17.30;7.30;;;;;;;;;;5023988;28;20280;-79
2023/04/05 03:30:17;;;;;;;15.73;7.50;;;;;;;;;;5037162;28;20348;-81
2023/04/05 03:32:43;;;;;;;18.03;7.20;;;;;;;;;;5019024;28;20327;-79
2023/04/05 03:35:09;;;;;;;20.13;7.87;;;;;;;;;;5018139;28;21552;-81
2023/04/05 03:37:38;;;;;;;14.17;7.53;;;;;;;;;;5017153;28;20260;-79
2023/04/05 03:40:09;;;;;;;14.80;8.03;;;;;;;;;;5012568;28;20293;-81
2023/04/05 03:42:35;;;;;;;16.13;7.70;;;;;;;;;;5017540;28;20352;-78
2023/04/05 03:45:04;;;;;;;14.57;7.60;;;;;;;;;;5017233;28;20792;-80
2023/04/05 03:47:31;;;;;;;16.30;7.43;;;;;;;;;;5015840;28;20279;-82
2023/04/05 03:49:57;;;;;;;14.77;6.67;;;;;;;;;;5018422;28;20276;-79
2023/04/05 03:52:23;;;;;;;19.93;8.47;;;;;;;;;;5021017;28;20297;-80
2023/04/05 03:54:49;;;;;;;15.23;7.53;;;;;;;;;;5020993;28;20331;-79
2023/04/05 03:57:15;;;;;;;16.93;8.73;;;;;;;;;;5020100;28;20307;-80
2023/04/05 03:59:45;;;;;;;17.13;7.47;;;;;;;;;;5018797;28;20296;-80
2023/04/05 04:02:11;;;;;;;16.43;7.23;;;;;;;;;;5035023;28;20281;-79
2023/04/05 04:04:39;;;;;;;13.33;7.23;;;;;;;;;;5017059;28;20303;-80
2023/04/05 04:07:06;;;;;;;17.73;7.63;;;;;;;;;;5033614;28;20311;-78
2023/04/05 04:09:32;;;;;;;18.63;7.87;;;;;;;;;;5018330;28;20296;-80
2023/04/05 04:12:00;;;;;;;18.77;7.90;;;;;;;;;;5015787;28;20275;-80
2023/04/05 04:14:27;;;;;;;15.93;8.23;;;;;;;;;;5017669;28;20308;-80
2023/04/05 04:16:53;;;;;;;31.10;9.20;;;;;;;;;;5018327;28;20276;-78
2023/04/05 04:19:19;;;;;;;17.60;7.33;;;;;;;;;;5019890;28;20271;-77
2023/04/05 04:21:50;;;;;;;15.23;7.83;;;;;;;;;;5015696;28;20272;-80
2023/04/05 04:24:35;;;;;;;;;;;;;;;;;;;;;
2023/04/05 04:27:15;;;;;;;;;;;;;;;;;;;;;
2023/04/05 04:30:13;;;;;;;;;;;;;;;;;;;;;
2023/04/05 04:33:03;;;;;;;18.13;7.73;;;;;;;;;;5035895;28;20272;-80
2023/04/05 04:41:56;;;;;;;;;;;;;;;;;;;;;
2023/04/05 04:45:03;;;;;;;;;;;;;;;;;;;;;
2023/04/05 04:48:22;;;;;;;;;;;;;;;;;;;;;
2023/04/05 04:50:58;;;;;;;21.80;9.47;;;;;;;;;;5028403;28;20307;-80
2023/04/05 04:57:11;;;;;;;;;;;;;;;;;;;;;
2023/04/05 04:59:39;;;;;;;24.27;9.53;;;;;;;;;;5034696;28;20272;-82
2023/04/05 05:02:13;;;;;;;18.57;8.90;;;;;;;;;;5029731;28;20356;-80
2023/04/05 05:04:49;;;;;;;26.13;10.67;;;;;;;;;;5028424;28;20311;-80
2023/04/05 05:07:21;;;;;;;19.03;9.97;;;;;;;;;;5016561;28;20289;-79
2023/04/05 05:09:51;;;;;;;21.43;9.93;;;;;;;;;;5029685;28;20266;-80
2023/04/05 05:12:17;;;;;;;21.73;10.37;;;;;;;;;;5017538;28;20296;-80
2023/04/05 05:14:45;;;;;;;23.37;12.03;;;;;;;;;;5016653;28;20308;-82
2023/04/05 05:17:11;;;;;;;20.77;11.43;;;;;;;;;;5032182;28;20760;-79
2023/04/05 05:19:40;;;;;;;17.90;11.03;;;;;;;;;;5021742;28;20351;-81
2023/04/05 05:22:06;;;;;;;19.47;10.93;;;;;;;;;;5018188;28;20263;-79
2023/04/05 05:24:33;;;;;;;17.83;10.17;;;;;;;;;;5022024;28;20292;-79
2023/04/05 05:27:01;;;;;;;18.57;9.77;;;;;;;;;;5017345;28;20292;-81
2023/04/05 05:29:28;;;;;;;17.27;9.33;;;;;;;;;;5018391;28;20280;-80
2023/04/05 05:31:56;;;;;;;24.17;12.23;;;;;;;;;;5017214;28;20272;-78
2023/04/05 05:34:25;;;;;;;22.73;11.43;;;;;;;;;;5033971;28;20284;-80
2023/04/05 05:36:52;;;;;;;21.63;10.83;;;;;;;;;;5014916;28;20261;-80
2023/04/05 05:39:19;;;;;;;24.37;11.13;;;;;;;;;;5034813;28;20277;-80
2023/04/05 05:41:45;;;;;;;26.07;12.20;;;;;;;;;;5027488;28;20299;-80
2023/04/05 05:44:12;;;;;;;27.40;11.67;;;;;;;;;;5034451;28;20264;-81
2023/04/05 05:46:38;;;;;;;19.10;11.17;;;;;;;;;;5019737;28;20387;-79
2023/04/05 05:49:04;;;;;;;22.80;11.23;;;;;;;;;;5036038;28;20269;-81
2023/04/05 05:51:33;;;;;;;23.27;11.30;;;;;;;;;;5027095;28;20672;-81
2023/04/05 05:53:59;;;;;;;21.57;11.60;;;;;;;;;;5032683;28;20295;-81
2023/04/05 05:56:25;;;;;;;20.40;10.30;;;;;;;;;;5017330;28;20281;-80
2023/04/05 05:58:51;;;;;;;26.70;11.00;;;;;;;;;;5026950;28;20276;-81
2023/04/05 06:01:18;;;;;;;17.33;10.77;;;;;;;;;;5037356;28;20275;-81
2023/04/05 06:03:46;;;;;;;19.73;10.23;;;;;;;;;;5029665;28;20339;-80
2023/04/05 06:06:12;;;;;;;21.13;9.83;;;;;;;;;;5019397;28;20309;-81
2023/04/05 06:08:38;;;;;;;19.27;9.47;;;;;;;;;;5018015;28;20280;-81
2023/04/05 06:11:07;;;;;;;13.80;8.13;;;;;;;;;;5029299;28;20356;-81
2023/04/05 06:13:33;;;;;;;14.30;8.40;;;;;;;;;;5034748;28;20287;-81
2023/04/05 06:16:01;;;;;;;14.63;8.17;;;;;;;;;;5018968;28;20281;-79
2023/04/05 06:18:27;;;;;;;17.70;9.13;;;;;;;;;;5034484;28;20280;-81
2023/04/05 06:20:54;;;;;;;16.67;8.07;;;;;;;;;;5019513;28;20328;-82
2023/04/05 06:23:20;;;;;;;16.93;8.50;;;;;;;;;;5029709;28;20296;-80
2023/04/05 06:25:51;;;;;;;15.80;8.47;;;;;;;;;;5019261;28;20308;-79
2023/04/05 06:28:17;;;;;;;12.63;7.03;;;;;;;;;;5018465;28;20272;-81
2023/04/05 06:30:43;;;;;;;15.10;7.57;;;;;;;;;;5017486;28;20287;-79
2023/04/05 06:33:12;;;;;;;19.50;8.20;;;;;;;;;;5028911;28;20344;-80
2023/04/05 06:35:41;;;;;;;11.83;7.73;;;;;;;;;;5020796;28;20272;-80
2023/04/05 06:38:09;;;;;;;13.27;8.00;;;;;;;;;;5035162;28;20284;-79
2023/04/05 06:40:35;;;;;;;16.27;8.10;;;;;;;;;;5030014;28;20292;-79
2023/04/05 06:43:06;;;;;;;12.07;7.07;;;;;;;;;;5018452;28;20300;-80
2023/04/05 06:45:32;;;;;;;11.60;7.07;;;;;;;;;;5016070;28;20424;-80
2023/04/05 06:48:01;;;;;;;10.87;6.63;;;;;;;;;;5019838;28;20320;-80
2023/04/05 06:50:27;;;;;;;12.37;7.23;;;;;;;;;;5030270;28;20332;-80
2023/04/05 06:52:53;;;;;;;12.13;6.33;;;;;;;;;;5009740;28;20288;-82
2023/04/05 06:55:29;;;;;;;;;;;;;;;;;;;;;
2023/04/05 06:57:56;;;;;;;11.93;7.73;;;;;;;;;;5031100;28;20316;-81
2023/04/05 07:00:22;;;;;;;9.83;6.40;;;;;;;;;;5009386;28;20315;-80
2023/04/05 07:02:48;;;;;;;13.50;6.30;;;;;;;;;;5007629;28;20391;-81
2023/04/05 07:05:14;;;;;;;13.07;7.07;;;;;;;;;;5004142;28;20268;-81
2023/04/05 07:07:42;;;;;;;12.40;6.13;;;;;;;;;;5009013;28;20321;-80
2023/04/05 07:10:08;;;;;;;11.53;6.30;;;;;;;;;;5007544;28;20272;-80
2023/04/05 07:12:34;;;;;;;12.80;6.47;;;;;;;;;;5003050;28;20338;-80
2023/04/05 07:15:01;;;;;;;10.87;6.57;;;;;;;;;;5003837;28;20273;-80
2023/04/05 07:17:27;;;;;;;13.27;6.50;;;;;;;;;;4999719;28;20326;-79
2023/04/05 07:19:55;;;;;;;14.40;7.00;;;;;;;;;;5009063;28;20311;-79
2023/04/05 07:22:21;;;;;;;10.73;6.67;;;;;;;;;;5019215;28;20273;-81
2023/04/05 07:24:51;;;;;;;10.73;6.03;;;;;;;;;;5005600;28;20327;-80
2023/04/05 07:27:17;;;;;;;13.60;7.00;;;;;;;;;;5006639;28;20034;-79
2023/04/05 07:29:43;;;;;;;11.27;5.93;;;;;;;;;;5007724;28;20320;-80
2023/04/05 07:32:09;;;;;;;12.73;6.87;;;;;;;;;;5020336;28;20052;-78
2023/04/05 07:34:35;;;;;;;11.67;7.00;;;;;;;;;;5004567;28;20280;-80
2023/04/05 07:37:02;;;;;;;11.00;6.30;;;;;;;;;;5016129;28;20336;-80
2023/04/05 07:39:28;;;;;;;13.93;7.70;;;;;;;;;;5011225;28;20315;-82
2023/04/05 07:41:56;;;;;;;11.33;6.90;;;;;;;;;;5014467;28;20284;-81
2023/04/05 07:44:22;;;;;;;10.03;6.20;;;;;;;;;;5015521;28;20292;-82
2023/04/05 07:46:48;;;;;;;10.27;6.53;;;;;;;;;;5017548;28;20320;-81
2023/04/05 07:49:14;;;;;;;16.30;6.90;;;;;;;;;;5013423;28;20316;-81
2023/04/05 07:51:42;;;;;;;11.83;7.13;;;;;;;;;;5004817;28;20304;-80
2023/04/05 07:54:09;;;;;;;14.73;6.80;;;;;;;;;;5016393;28;20288;-81
2023/04/05 07:56:37;;;;;;;12.40;7.27;;;;;;;;;;5005806;28;20272;-79
2023/04/05 07:59:03;;;;;;;14.27;7.10;;;;;;;;;;5001909;28;20284;-79
2023/04/05 08:01:30;;;;;;;13.20;7.70;;;;;;;;;;5002928;28;20426;-81
2023/04/05 08:03:56;;;;;;;18.77;7.33;;;;;;;;;;5008538;28;20033;-81
2023/04/05 08:06:23;;;;;;;22.43;7.27;;;;;;;;;;5005920;28;20665;-81
2023/04/05 08:08:50;;;;;;;12.50;6.77;;;;;;;;;;5010202;28;20301;-80
2023/04/05 08:11:16;;;;;;;9.13;5.80;;;;;;;;;;5007964;28;20277;-81
2023/04/05 08:13:42;;;;;;;10.10;6.60;;;;;;;;;;5019536;28;20365;-79
2023/04/05 08:16:09;;;;;;;16.30;7.30;;;;;;;;;;5002335;28;20026;-80
2023/04/05 08:18:35;;;;;;;14.07;6.50;;;;;;;;;;5004295;28;20112;-80
2023/04/05 08:21:01;;;;;;;12.00;6.17;;;;;;;;;;5018527;28;20037;-79
2023/04/05 08:23:30;;;;;;;12.23;6.40;;;;;;;;;;5031984;28;20030;-80
2023/04/05 08:25:56;;;;;;;10.07;7.23;;;;;;;;;;5035026;28;20300;-80
2023/04/05 08:28:22;;;;;;;10.27;6.17;;;;;;;;;;5018708;28;20048;-79
2023/04/05 08:30:48;;;;;;;11.10;6.13;;;;;;;;;;5021214;28;20280;-79
2023/04/05 08:33:14;;;;;;;13.50;5.83;;;;;;;;;;5020384;28;20025;-80
2023/04/05 08:35:41;;;;;;;9.30;6.20;;;;;;;;;;5016029;28;20045;-78
2023/04/05 08:38:07;;;;;;;10.10;6.03;;;;;;;;;;5022877;28;20026;-79
2023/04/05 08:40:40;;;;;;;15.57;5.70;;;;;;;;;;5020890;28;20053;-81
2023/04/05 08:43:26;;;;;;;9.15;5.70;;;;;;;;;;5012663;28;20026;-80
2023/04/05 08:45:55;;;;;;;10.90;6.20;;;;;;;;;;5021220;28;20029;-79
2023/04/05 08:48:21;;;;;;;10.60;5.83;;;;;;;;;;5036091;28;20038;-80
2023/04/05 08:50:53;;;;;;;13.40;6.67;;;;;;;;;;5025073;28;20040;-80
2023/04/05 08:53:22;;;;;;;9.52;5.45;;;;;;;;;;5026159;28;20030;-80
2023/04/05 08:55:54;;;;;;;12.67;5.50;;;;;;;;;;5019745;28;20029;-81
2023/04/05 08:58:21;;;;;;;7.68;4.85;;;;;;;;;;5018170;28;20014;-79
2023/04/05 09:00:48;;;;;;;11.17;5.50;;;;;;;;;;5018930;28;20045;-80
2023/04/05 09:03:15;;;;;;;11.63;5.40;;;;;;;;;;5020782;28;20034;-81
2023/04/05 09:05:44;;;;;;;11.30;5.53;;;;;;;;;;5015968;28;20088;-80
2023/04/05 09:08:20;;;;;;;11.00;6.13;;;;;;;;;;5029222;28;20118;-80
2023/04/05 09:10:46;;;;;;;11.07;5.77;;;;;;;;;;5008874;28;20121;-80
2023/04/05 09:13:14;;;;;;;11.63;6.07;;;;;;;;;;5014422;28;20113;-80
2023/04/05 09:15:40;;;;;;;11.03;5.17;;;;;;;;;;5030016;28;20033;-80
2023/04/05 09:18:20;;;;;;;11.17;6.07;;;;;;;;;;5016206;28;20026;-80
2023/04/05 09:20:46;;;;;;;12.37;6.10;;;;;;;;;;5039029;28;20029;-78
2023/04/05 09:23:15;;;;;;;9.40;5.87;;;;;;;;;;5027270;28;20041;-80
2023/04/05 09:25:41;;;;;;;10.17;6.20;;;;;;;;;;5012269;28;20049;-80
2023/04/05 09:28:11;;;;;;;11.70;6.40;;;;;;;;;;5020016;28;20094;-78
2023/04/05 09:30:37;;;;;;;10.03;5.47;;;;;;;;;;5006800;28;20026;-80
2023/04/05 09:33:04;;;;;;;9.93;6.20;;;;;;;;;;5016614;28;20099;-81
2023/04/05 09:35:31;;;;;;;10.13;5.47;;;;;;;;;;5014043;28;20034;-80
2023/04/05 09:37:58;;;;;;;9.37;5.60;;;;;;;;;;5019257;28;20065;-80
2023/04/05 09:40:42;;;;;;;10.23;6.00;;;;;;;;;;5019667;28;20018;-81
2023/04/05 09:43:10;;;;;;;9.60;5.50;;;;;;;;;;5029340;28;20042;-80
2023/04/05 09:45:44;;;;;;;12.57;6.03;;;;;;;;;;5019546;28;20153;-81
2023/04/05 09:48:12;;;;;;;11.73;4.80;;;;;;;;;;5019233;28;20018;-81
2023/04/05 09:50:40;;;;;;;14.60;5.93;;;;;;;;;;5034410;28;20034;-81
2023/04/05 09:53:14;;;;;;;9.70;5.60;;;;;;;;;;5017823;28;20022;-81
2023/04/05 09:55:43;;;;;;;11.47;5.80;;;;;;;;;;5017759;28;20030;-80
2023/04/05 09:58:13;;;;;;;9.23;5.67;;;;;;;;;;5023268;28;20061;-83
2023/04/05 10:00:52;;;;;;;8.60;4.87;;;;;;;;;;5018351;28;20026;-81
2023/04/05 10:03:18;;;;;;;11.47;5.73;;;;;;;;;;5009424;28;20094;-80
2023/04/05 10:05:47;;;;;;;9.27;5.73;;;;;;;;;;5013564;28;20105;-80
2023/04/05 10:08:14;;;;;;;9.97;6.00;;;;;;;;;;5011545;28;20037;-81
2023/04/05 10:10:48;;;;;;;8.77;5.70;;;;;;;;;;5019057;28;20281;-82
2023/04/05 10:13:15;;;;;;;10.93;5.83;;;;;;;;;;5022088;28;20044;-80
2023/04/05 10:15:48;;;;;;;7.67;5.10;;;;;;;;;;5037655;28;20042;-81
2023/04/05 10:18:17;;;;;;;8.57;5.10;;;;;;;;;;5017938;28;20134;-82
2023/04/05 10:20:49;;;;;;;7.83;5.27;;;;;;;;;;5012006;28;20026;-80
2023/04/05 10:23:26;;;;;;;8.60;5.75;;;;;;;;;;5029945;28;20022;-80
2023/04/05 10:25:52;;;;;;;10.03;5.73;;;;;;;;;;5019673;28;20093;-79
2023/04/05 10:28:31;;;;;;;10.30;5.33;;;;;;;;;;5020391;28;20048;-79
2023/04/05 10:31:18;;;;;;;8.77;5.60;;;;;;;;;;5027398;28;20105;-79
2023/04/05 10:33:51;;;;;;;8.30;6.37;;;;;;;;;;5009674;28;20034;-78
2023/04/05 10:36:36;;;;;;;8.82;5.03;;;;;;;;;;5019374;28;20033;-79
2023/04/05 10:39:09;;;;;;;12.53;5.80;;;;;;;;;;5020578;28;20130;-78
2023/04/05 10:41:36;;;;;;;14.10;6.70;;;;;;;;;;5019271;28;20498;-80
2023/04/05 10:44:10;;;;;;;10.27;5.97;;;;;;;;;;5018961;28;20022;-79
2023/04/05 10:46:39;;;;;;;10.30;5.77;;;;;;;;;;5037360;28;20030;-77
2023/04/05 10:49:08;;;;;;;10.13;5.57;;;;;;;;;;5019018;28;21119;-80
2023/04/05 10:51:34;;;;;;;9.40;5.93;;;;;;;;;;5020056;28;20029;-79
2023/04/05 10:54:03;;;;;;;10.10;6.30;;;;;;;;;;5019714;28;20042;-80
2023/04/05 10:56:29;;;;;;;10.30;6.17;;;;;;;;;;5018642;28;20018;-78
2023/04/05 10:59:01;;;;;;;9.47;5.83;;;;;;;;;;5036812;28;20053;-79
2023/04/05 11:01:27;;;;;;;10.65;6.47;;;;;;;;;;5034008;28;20022;-79
2023/04/05 11:03:54;;;;;;;9.37;6.67;;;;;;;;;;5019407;28;20087;-79
2023/04/05 11:06:27;;;;;;;9.57;5.90;;;;;;;;;;5019905;28;20053;-79
2023/04/05 11:08:57;;;;;;;10.53;6.47;;;;;;;;;;5018307;28;20034;-79
2023/04/05 11:11:25;;;;;;;14.27;7.17;;;;;;;;;;5042994;23;20034;-80
2023/04/05 11:14:00;;;;;;;10.93;5.60;;;;;;;;;;5013572;28;20017;-78
2023/04/05 11:16:37;;;;;;;9.80;6.50;;;;;;;;;;5006896;28;20046;-81
2023/04/05 11:19:04;;;;;;;11.87;6.30;;;;;;;;;;5017036;28;20117;-81
2023/04/05 11:21:34;;;;;;;12.60;7.10;;;;;;;;;;5012548;28;20034;-79
2023/04/05 11:24:07;;;;;;;10.20;6.43;;;;;;;;;;5010074;28;20034;-80
2023/04/05 11:26:38;;;;;;;11.80;7.23;;;;;;;;;;5006670;28;20053;-80
2023/04/05 11:29:41;;;;;;;10.63;6.37;;;;;;;;;;5001606;28;20015;-80
2023/04/05 11:32:13;;;;;;;12.90;7.33;;;;;;;;;;5007534;28;20158;-78
2023/04/05 11:34:41;;;;;;;11.63;7.20;;;;;;;;;;5013126;28;20032;-78
2023/04/05 11:37:07;;;;;;;13.67;7.30;;;;;;;;;;5009236;28;20014;-80
2023/04/05 11:39:33;;;;;;;11.00;7.27;;;;;;;;;;5007316;28;20099;-80
2023/04/05 11:42:01;;;;;;;10.73;7.20;;;;;;;;;;5018510;28;20031;-80
2023/04/05 11:44:27;;;;;;;10.73;7.00;;;;;;;;;;5030369;28;20105;-80
2023/04/05 11:46:54;;;;;;;10.53;7.27;;;;;;;;;;5020045;28;20049;-81
2023/04/05 11:49:22;;;;;;;12.00;7.10;;;;;;;;;;5006860;28;20077;-79
2023/04/05 11:51:49;;;;;;;8.87;7.20;;;;;;;;;;5003010;28;20054;-80
2023/04/05 11:54:36;;;;;;;13.37;7.33;;;;;;;;;;5017384;28;20042;-80
2023/04/05 11:57:02;;;;;;;11.27;7.53;;;;;;;;;;4999468;28;20044;-79
2023/04/05 11:59:32;;;;;;;11.17;7.50;;;;;;;;;;5015877;28;20076;-79
2023/04/05 12:01:59;;;;;;;12.00;8.10;;;;;;;;;;4999375;28;20022;-81
2023/04/05 12:04:25;;;;;;;13.97;8.30;;;;;;;;;;4999423;28;20081;-79
2023/04/05 12:07:07;;;;;;;45.20;9.23;;;;;;;;;;5000818;28;20026;-78
2023/04/05 12:09:34;;;;;;;9.90;7.00;;;;;;;;;;5007138;28;20034;-80
2023/04/05 12:12:00;;;;;;;13.30;7.27;;;;;;;;;;5007596;28;20030;-80
2023/04/05 12:14:26;;;;;;;11.50;7.10;;;;;;;;;;4994201;28;20096;-79
2023/04/05 12:16:52;;;;;;;17.07;8.10;;;;;;;;;;4999676;28;20034;-80
2023/04/05 12:19:20;;;;;;;11.50;8.00;;;;;;;;;;5001321;28;20030;-81
2023/04/05 12:21:46;;;;;;;16.47;8.13;;;;;;;;;;5002864;28;20037;-80
2023/04/05 12:24:13;;;;;;;10.67;7.10;;;;;;;;;;4996592;28;20479;-80
2023/04/05 12:26:39;;;;;;;15.17;7.40;;;;;;;;;;5021912;28;20031;-79
2023/04/05 12:29:05;;;;;;;10.47;6.97;;;;;;;;;;5007827;28;20081;-81
2023/04/05 12:31:50;;;;;;;14.73;7.60;;;;;;;;;;5012756;28;20034;-79
2023/04/05 12:34:26;;;;;;;12.77;7.97;;;;;;;;;;5011312;28;20041;-78
2023/04/05 12:36:54;;;;;;;22.03;7.70;;;;;;;;;;5012814;28;20057;-81
2023/04/05 12:39:23;;;;;;;15.57;6.80;;;;;;;;;;5015095;28;20054;-79
2023/04/05 12:41:56;;;;;;;13.73;7.23;;;;;;;;;;5011494;28;20030;-80
2023/04/05 12:44:22;;;;;;;;;;;;;;;;;;5023391;28;20034;-79
2023/04/05 12:46:48;;;;;;;11.77;7.13;;;;;;;;;;5007408;28;20020;-79
2023/04/05 12:49:14;;;;;;;15.87;7.40;;;;;;;;;;5007700;28;20037;-80
2023/04/05 12:51:47;;;;;;;13.70;6.90;;;;;;;;;;5005613;28;20026;-79
2023/04/05 12:54:14;;;;;;;11.57;7.28;;;;;;;;;;5001293;28;20061;-80
2023/04/05 12:56:42;;;;;;;13.00;7.80;;;;;;;;;;5001154;28;20065;-81
2023/04/05 12:59:11;;;;;;;17.50;7.93;;;;;;;;;;5013952;28;20025;-80
2023/04/05 13:01:38;;;;;;;10.63;6.87;;;;;;;;;;5010941;28;20279;-80
2023/04/05 13:04:04;;;;;;;12.83;7.07;;;;;;;;;;5029800;28;20113;-79
2023/04/05 13:06:30;;;;;;;12.93;7.40;;;;;;;;;;4996807;28;20449;-79
2023/04/05 13:08:57;;;;;;;10.20;7.40;;;;;;;;;;5013235;28;20034;-80
2023/04/05 13:11:25;;;;;;;12.73;7.50;;;;;;;;;;5012333;28;20026;-79
2023/04/05 13:13:52;;;;;;;9.80;7.23;;;;;;;;;;5011698;28;20014;-81
2023/04/05 13:16:20;;;;;;;16.23;7.67;;;;;;;;;;5015064;28;20105;-80
2023/04/05 13:18:46;;;;;;;11.87;7.27;;;;;;;;;;5009432;28;20034;-80
2023/04/05 13:21:15;;;;;;;13.77;8.27;;;;;;;;;;5014891;28;20054;-79
2023/04/05 13:23:43;;;;;;;12.93;7.80;;;;;;;;;;5013036;28;20248;-80
2023/04/05 13:26:10;;;;;;;13.10;7.27;;;;;;;;;;5019438;28;20073;-78
2023/04/05 13:28:36;;;;;;;10.30;7.17;;;;;;;;;;5000309;28;20035;-80
2023/04/05 13:31:07;;;;;;;9.63;7.27;;;;;;;;;;4995653;28;20022;-78
2023/04/05 13:33:33;;;;;;;9.10;6.37;;;;;;;;;;5010440;28;20514;-79
2023/04/05 13:35:59;;;;;;;13.00;6.93;;;;;;;;;;5013736;28;20091;-78
2023/04/05 13:38:25;;;;;;;11.37;7.43;;;;;;;;;;4993535;28;20034;-79
2023/04/05 13:40:51;;;;;;;10.37;8.40;;;;;;;;;;5001902;28;20060;-79
2023/04/05 13:43:20;;;;;;;10.30;7.80;;;;;;;;;;4998612;28;20038;-80
2023/04/05 13:45:46;;;;;;;10.63;6.80;;;;;;;;;;4999377;28;20445;-80
2023/04/05 13:48:12;;;;;;;12.40;7.23;;;;;;;;;;4996173;28;20053;-78
2023/04/05 13:50:38;;;;;;;12.87;6.53;;;;;;;;;;4993202;28;20395;-79
2023/04/05 13:53:04;;;;;;;10.70;6.37;;;;;;;;;;4999418;28;20026;-79
2023/04/05 13:55:30;;;;;;;7.63;5.93;;;;;;;;;;5015698;28;20766;-79
2023/04/05 13:57:56;;;;;;;10.77;6.57;;;;;;;;;;5012846;28;20026;-78
2023/04/05 14:00:22;;;;;;;10.03;7.13;;;;;;;;;;5001823;28;20041;-78
2023/04/05 14:02:48;;;;;;;14.87;7.73;;;;;;;;;;4993794;28;20355;-80
2023/04/05 14:05:15;;;;;;;12.80;7.80;;;;;;;;;;4995466;28;20033;-79
2023/04/05 14:07:42;;;;;;;12.87;7.93;;;;;;;;;;4995062;28;20837;-80
2023/04/05 14:10:08;;;;;;;10.97;6.83;;;;;;;;;;4995721;28;20120;-80
2023/04/05 14:12:35;;;;;;;11.07;7.10;;;;;;;;;;5024604;28;20056;-80
2023/04/05 14:15:01;;;;;;;10.37;7.13;;;;;;;;;;4995942;28;20036;-79
2023/04/05 14:17:27;;;;;;;9.90;6.07;;;;;;;;;;4994938;28;20096;-79
2023/04/05 14:19:53;;;;;;;10.10;6.97;;;;;;;;;;4990942;28;20937;-80
2023/04/05 14:22:20;;;;;;;11.23;7.53;;;;;;;;;;5001415;28;20026;-80
2023/04/05 14:24:46;;;;;;;10.70;7.70;;;;;;;;;;5003577;28;20038;-79
2023/04/05 14:27:12;;;;;;;12.93;7.60;;;;;;;;;;5020016;28;20050;-80
2023/04/05 14:29:38;;;;;;;10.57;7.57;;;;;;;;;;4994786;28;20440;-80
2023/04/05 14:32:04;;;;;;;11.63;7.57;;;;;;;;;;5005186;28;20105;-80
2023/04/05 14:34:30;;;;;;;10.23;7.27;;;;;;;;;;5008432;28;20025;-78
2023/04/05 14:36:58;;;;;;;14.70;7.40;;;;;;;;;;4989975;28;20026;-78
2023/04/05 14:39:25;;;;;;;7.83;6.40;;;;;;;;;;4999743;28;20038;-81
2023/04/05 14:41:51;;;;;;;9.90;7.37;;;;;;;;;;5020016;28;20022;-76
2023/04/05 14:44:17;;;;;;;14.33;7.40;;;;;;;;;;5004028;28;20232;-79
2023/04/05 14:46:43;;;;;;;10.80;7.20;;;;;;;;;;5004587;28;20064;-79
2023/04/05 14:49:09;;;;;;;11.40;7.27;;;;;;;;;;5003530;28;20038;-79
2023/04/05 14:51:35;;;;;;;11.63;7.53;;;;;;;;;;5002649;28;20665;-78
2023/04/05 14:54:02;;;;;;;12.37;7.90;;;;;;;;;;4998034;28;20031;-80
2023/04/05 14:56:28;;;;;;;9.13;7.30;;;;;;;;;;4995732;28;20061;-79
2023/04/05 14:58:54;;;;;;;9.33;7.07;;;;;;;;;;4995817;28;20513;-79